Wellington, Florida
Current Conditions -  °F | °C
As of 8:53 AM on Friday 24 Oct 2014 (Local Time) from KPBI Reporting Station
Overcast Overcast  
Wind Chill: 78°   Ceiling: 3800
Heat Index: 80°   Visibility: 10mi
Dew Point: 66°   Wind: 14mph
Humidity: 66%   Direction: 60°ENE
Pressure: 29.89"   Gusts: NA
Location:  26.64°N, 80.27°W
Report Text: KPBI 241253Z 06012KT 10SM SCT028 OVC038 26/19 A2989 RMK AO2 SLP122 T02560189
Loading
Personal Weather Stations






























Interactive Weather Map
Tropical Storm Tracking
New forecast layout! Learn more

10-Day Weather Forecast

Advertisements
Track Severe Weather on mobile